sensor_id;sensor_type;location;lat;lon;timestamp;pressure;altitude;pressure_sealevel;temperature;humidity
36304;BME280;22335;49.800;8.596;2023-03-03T00:01:33;100874.59;;;20.50;42.32
36304;BME280;22335;49.800;8.596;2023-03-03T00:08:20;100800.78;;;19.95;42.30
36304;BME280;22335;49.800;8.596;2023-03-03T00:15:13;100878.06;;;20.47;42.45
36304;BME280;22335;49.800;8.596;2023-03-03T00:22:00;100875.44;;;20.50;42.13
36304;BME280;22335;49.800;8.596;2023-03-03T00:28:46;100886.38;;;20.47;42.31
36304;BME280;22335;49.800;8.596;2023-03-03T00:35:31;100882.00;;;20.46;42.07
36304;BME280;22335;49.800;8.596;2023-03-03T00:42:18;100894.72;;;20.47;42.20
36304;BME280;22335;49.800;8.596;2023-03-03T00:49:23;100908.78;;;20.50;41.96
36304;BME280;22335;49.800;8.596;2023-03-03T00:56:08;100908.03;;;20.41;42.25
36304;BME280;22335;49.800;8.596;2023-03-03T01:02:53;100916.94;;;20.47;42.01
36304;BME280;22335;49.800;8.596;2023-03-03T01:09:36;100915.34;;;20.46;42.06
36304;BME280;22335;49.800;8.596;2023-03-03T01:16:20;100907.06;;;20.37;42.24
36304;BME280;22335;49.800;8.596;2023-03-03T01:23:05;100901.50;;;20.37;42.18
36304;BME280;22335;49.800;8.596;2023-03-03T01:29:49;100899.91;;;20.36;42.07
36304;BME280;22335;49.800;8.596;2023-03-03T01:36:33;100884.84;;;20.37;41.97
36304;BME280;22335;49.800;8.596;2023-03-03T01:43:19;100892.72;;;20.35;42.24
36304;BME280;22335;49.800;8.596;2023-03-03T01:50:04;100890.75;;;20.36;42.18
36304;BME280;22335;49.800;8.596;2023-03-03T01:56:52;100893.53;;;20.36;42.22
36304;BME280;22335;49.800;8.596;2023-03-03T02:03:41;100877.63;;;20.24;42.00
36304;BME280;22335;49.800;8.596;2023-03-03T02:10:25;100891.44;;;20.33;42.09
36304;BME280;22335;49.800;8.596;2023-03-03T02:17:10;100884.25;;;20.32;41.95
36304;BME280;22335;49.800;8.596;2023-03-03T02:24:01;100873.47;;;20.30;41.89
36304;BME280;22335;49.800;8.596;2023-03-03T02:30:49;100869.53;;;20.31;42.09
36304;BME280;22335;49.800;8.596;2023-03-03T02:37:35;100883.09;;;20.33;41.89
36304;BME280;22335;49.800;8.596;2023-03-03T02:44:20;100877.28;;;20.25;42.29
36304;BME280;22335;49.800;8.596;2023-03-03T02:51:06;100876.44;;;20.25;41.88
36304;BME280;22335;49.800;8.596;2023-03-03T02:57:50;100870.91;;;20.25;41.87
36304;BME280;22335;49.800;8.596;2023-03-03T03:04:33;100880.19;;;20.29;41.96
36304;BME280;22335;49.800;8.596;2023-03-03T03:11:19;100873.22;;;20.23;42.09
36304;BME280;22335;49.800;8.596;2023-03-03T03:18:03;100889.22;;;20.26;41.93
36304;BME280;22335;49.800;8.596;2023-03-03T03:24:47;100888.59;;;20.20;42.09
36304;BME280;22335;49.800;8.596;2023-03-03T03:31:33;100876.00;;;20.23;41.85
36304;BME280;22335;49.800;8.596;2023-03-03T03:38:17;100885.94;;;20.24;41.95
36304;BME280;22335;49.800;8.596;2023-03-03T04:00:08;100888.72;;;20.24;41.65
36304;BME280;22335;49.800;8.596;2023-03-03T04:06:58;100888.41;;;20.25;41.76
36304;BME280;22335;49.800;8.596;2023-03-03T04:13:43;100888.91;;;20.19;41.77
36304;BME280;22335;49.800;8.596;2023-03-03T04:20:28;100888.13;;;20.18;41.83
36304;BME280;22335;49.800;8.596;2023-03-03T04:27:12;100891.50;;;20.24;41.53
36304;BME280;22335;49.800;8.596;2023-03-03T04:33:56;100902.13;;;20.22;41.68
36304;BME280;22335;49.800;8.596;2023-03-03T04:40:42;100903.28;;;20.21;41.87
36304;BME280;22335;49.800;8.596;2023-03-03T04:47:27;100903.72;;;20.11;41.88
36304;BME280;22335;49.800;8.596;2023-03-03T04:54:11;100918.88;;;20.13;41.83
36304;BME280;22335;49.800;8.596;2023-03-03T05:00:56;100927.34;;;20.17;41.68
36304;BME280;22335;49.800;8.596;2023-03-03T05:07:42;100933.78;;;20.09;41.83
36304;BME280;22335;49.800;8.596;2023-03-03T05:14:26;100922.00;;;20.12;41.88
36304;BME280;22335;49.800;8.596;2023-03-03T05:21:11;100926.38;;;20.13;41.57
36304;BME280;22335;49.800;8.596;2023-03-03T05:27:55;100919.75;;;20.05;41.78
36304;BME280;22335;49.800;8.596;2023-03-03T05:34:38;100916.31;;;20.08;41.66
36304;BME280;22335;49.800;8.596;2023-03-03T05:41:23;100914.28;;;20.17;41.57
36304;BME280;22335;49.800;8.596;2023-03-03T05:48:07;100917.06;;;20.17;41.70
36304;BME280;22335;49.800;8.596;2023-03-03T05:54:51;100933.59;;;20.14;41.62
36304;BME280;22335;49.800;8.596;2023-03-03T06:01:36;100936.00;;;20.15;41.63
36304;BME280;22335;49.800;8.596;2023-03-03T06:08:20;100954.16;;;20.13;41.64
36304;BME280;22335;49.800;8.596;2023-03-03T06:15:05;100959.25;;;20.11;41.82
36304;BME280;22335;49.800;8.596;2023-03-03T06:21:50;100974.06;;;20.15;41.59
36304;BME280;22335;49.800;8.596;2023-03-03T06:28:34;100978.19;;;20.09;41.71
36304;BME280;22335;49.800;8.596;2023-03-03T06:35:17;100993.69;;;20.10;41.41
36304;BME280;22335;49.800;8.596;2023-03-03T06:42:02;100996.28;;;20.15;41.52
36304;BME280;22335;49.800;8.596;2023-03-03T06:48:46;100989.44;;;20.12;41.78
36304;BME280;22335;49.800;8.596;2023-03-03T06:55:30;101001.66;;;20.20;41.47
36304;BME280;22335;49.800;8.596;2023-03-03T07:02:16;101017.03;;;20.17;41.47
36304;BME280;22335;49.800;8.596;2023-03-03T07:09:00;101025.41;;;20.38;41.53
36304;BME280;22335;49.800;8.596;2023-03-03T07:15:44;100925.91;;;19.51;42.46
36304;BME280;22335;49.800;8.596;2023-03-03T07:22:29;101064.75;;;20.40;40.98
36304;BME280;22335;49.800;8.596;2023-03-03T07:29:20;101062.75;;;20.79;40.76
36304;BME280;22335;49.800;8.596;2023-03-03T07:36:23;101053.91;;;20.98;40.06
36304;BME280;22335;49.800;8.596;2023-03-03T07:50:22;101092.84;;;20.77;40.66
36304;BME280;22335;49.800;8.596;2023-03-03T07:57:13;101102.19;;;20.72;40.75
36304;BME280;22335;49.800;8.596;2023-03-03T08:04:10;101074.25;;;20.39;41.24
36304;BME280;22335;49.800;8.596;2023-03-03T08:11:02;101118.34;;;20.79;41.03
36304;BME280;22335;49.800;8.596;2023-03-03T08:17:47;101116.38;;;20.80;41.22
36304;BME280;22335;49.800;8.596;2023-03-03T08:24:32;101096.78;;;20.76;41.20
36304;BME280;22335;49.800;8.596;2023-03-03T08:31:18;101117.91;;;20.68;41.36
36304;BME280;22335;49.800;8.596;2023-03-03T08:38:20;101128.66;;;20.79;41.38
36304;BME280;22335;49.800;8.596;2023-03-03T08:45:06;101127.22;;;20.72;41.52
36304;BME280;22335;49.800;8.596;2023-03-03T08:51:49;101044.41;;;20.27;41.19
36304;BME280;22335;49.800;8.596;2023-03-03T08:58:34;101128.53;;;20.75;41.17
36304;BME280;22335;49.800;8.596;2023-03-03T09:05:24;101126.13;;;20.86;41.26
36304;BME280;22335;49.800;8.596;2023-03-03T09:12:14;101130.63;;;20.99;40.92
36304;BME280;22335;49.800;8.596;2023-03-03T09:19:14;101129.75;;;21.07;40.93
36304;BME280;22335;49.800;8.596;2023-03-03T09:26:24;101138.09;;;21.07;40.67
36304;BME280;22335;49.800;8.596;2023-03-03T10:21:34;101032.03;;;21.09;38.38
36304;BME280;22335;49.800;8.596;2023-03-03T10:28:30;101136.88;;;21.71;38.85
36304;BME280;22335;49.800;8.596;2023-03-03T10:35:47;101144.41;;;21.71;39.02
36304;BME280;22335;49.800;8.596;2023-03-03T10:43:07;101158.75;;;21.94;38.85
36304;BME280;22335;49.800;8.596;2023-03-03T10:50:16;101165.28;;;22.10;38.68
36304;BME280;22335;49.800;8.596;2023-03-03T10:57:11;101153.22;;;22.06;38.61
36304;BME280;22335;49.800;8.596;2023-03-03T11:04:32;101160.22;;;22.24;38.27
36304;BME280;22335;49.800;8.596;2023-03-03T11:11:32;101150.94;;;22.45;37.46
36304;BME280;22335;49.800;8.596;2023-03-03T11:18:32;101150.91;;;22.82;36.95
36304;BME280;22335;49.800;8.596;2023-03-03T11:25:25;101146.22;;;26.10;31.83
36304;BME280;22335;49.800;8.596;2023-03-03T11:32:19;101128.97;;;28.22;28.17
36304;BME280;22335;49.800;8.596;2023-03-03T11:39:10;101123.94;;;29.08;26.78
36304;BME280;22335;49.800;8.596;2023-03-03T11:45:59;101095.09;;;29.54;26.37
36304;BME280;22335;49.800;8.596;2023-03-03T11:52:50;101095.56;;;30.10;25.81
36304;BME280;22335;49.800;8.596;2023-03-03T12:00:02;101083.91;;;28.74;26.99
36304;BME280;22335;49.800;8.596;2023-03-03T12:07:16;101088.19;;;25.68;31.24
36304;BME280;22335;49.800;8.596;2023-03-03T12:14:13;101059.16;;;23.92;33.22
36304;BME280;22335;49.800;8.596;2023-03-03T12:21:14;101083.41;;;23.16;29.07
36304;BME280;22335;49.800;8.596;2023-03-03T12:28:10;101082.47;;;21.86;28.36
36304;BME280;22335;49.800;8.596;2023-03-03T12:35:02;101079.13;;;20.93;30.28
36304;BME280;22335;49.800;8.596;2023-03-03T12:41:55;101066.25;;;20.67;29.69
36304;BME280;22335;49.800;8.596;2023-03-03T12:48:47;101063.56;;;19.91;30.34
36304;BME280;22335;49.800;8.596;2023-03-03T12:55:38;101054.38;;;19.43;31.21
36304;BME280;22335;49.800;8.596;2023-03-03T13:02:46;101043.50;;;19.03;31.80
36304;BME280;22335;49.800;8.596;2023-03-03T13:09:58;101038.28;;;20.43;34.00
36304;BME280;22335;49.800;8.596;2023-03-03T13:16:57;100983.97;;;20.75;33.84
36304;BME280;22335;49.800;8.596;2023-03-03T13:23:50;101034.91;;;21.33;34.40
36304;BME280;22335;49.800;8.596;2023-03-03T13:30:46;101030.19;;;21.34;34.94
36304;BME280;22335;49.800;8.596;2023-03-03T13:37:34;101025.00;;;21.45;35.10
36304;BME280;22335;49.800;8.596;2023-03-03T13:44:24;100996.69;;;21.42;35.35
36304;BME280;22335;49.800;8.596;2023-03-03T13:51:22;101031.41;;;21.57;35.74
36304;BME280;22335;49.800;8.596;2023-03-03T13:58:21;101010.41;;;21.48;35.92
36304;BME280;22335;49.800;8.596;2023-03-03T14:05:12;100993.47;;;21.40;36.47
36304;BME280;22335;49.800;8.596;2023-03-03T14:12:04;100994.75;;;21.55;36.37
36304;BME280;22335;49.800;8.596;2023-03-03T14:18:56;100981.22;;;21.33;36.88
36304;BME280;22335;49.800;8.596;2023-03-03T14:25:52;100992.50;;;21.36;37.15
36304;BME280;22335;49.800;8.596;2023-03-03T14:32:40;100989.50;;;21.41;37.20
36304;BME280;22335;49.800;8.596;2023-03-03T14:39:31;100961.84;;;20.58;33.23
36304;BME280;22335;49.800;8.596;2023-03-03T14:46:31;100988.47;;;20.17;34.61
36304;BME280;22335;49.800;8.596;2023-03-03T14:53:29;100996.06;;;20.91;36.37
36304;BME280;22335;49.800;8.596;2023-03-03T15:00:28;100995.00;;;21.17;36.45
36304;BME280;22335;49.800;8.596;2023-03-03T15:07:33;100990.19;;;21.38;36.31
36304;BME280;22335;49.800;8.596;2023-03-03T15:14:27;100992.50;;;21.36;36.43
36304;BME280;22335;49.800;8.596;2023-03-03T15:21:13;101006.22;;;21.21;36.51
36304;BME280;22335;49.800;8.596;2023-03-03T15:28:19;100997.78;;;21.17;36.56
36304;BME280;22335;49.800;8.596;2023-03-03T15:35:25;101005.88;;;21.10;36.94
36304;BME280;22335;49.800;8.596;2023-03-03T15:42:14;101011.69;;;21.17;36.85
36304;BME280;22335;49.800;8.596;2023-03-03T15:49:12;101003.28;;;18.05;31.88
36304;BME280;22335;49.800;8.596;2023-03-03T15:56:13;101006.97;;;17.21;32.24
36304;BME280;22335;49.800;8.596;2023-03-03T16:03:11;101017.34;;;16.56;32.17
36304;BME280;22335;49.800;8.596;2023-03-03T16:10:07;101010.25;;;18.86;34.40
36304;BME280;22335;49.800;8.596;2023-03-03T16:17:10;101003.00;;;19.84;34.89
36304;BME280;22335;49.800;8.596;2023-03-03T16:24:06;101001.56;;;20.08;36.40
36304;BME280;22335;49.800;8.596;2023-03-03T16:31:04;101004.13;;;20.42;36.03
36304;BME280;22335;49.800;8.596;2023-03-03T16:37:58;101019.06;;;20.59;36.10
36304;BME280;22335;49.800;8.596;2023-03-03T16:44:48;101018.94;;;20.76;35.91
36304;BME280;22335;49.800;8.596;2023-03-03T16:51:50;101031.28;;;20.66;36.68
36304;BME280;22335;49.800;8.596;2023-03-03T16:58:49;101033.50;;;20.73;36.92
36304;BME280;22335;49.800;8.596;2023-03-03T17:05:50;101041.09;;;20.85;36.77
36304;BME280;22335;49.800;8.596;2023-03-03T17:12:45;101046.25;;;20.74;36.93
36304;BME280;22335;49.800;8.596;2023-03-03T17:19:54;101053.78;;;20.94;36.60
36304;BME280;22335;49.800;8.596;2023-03-03T17:26:54;101073.44;;;20.89;36.44
36304;BME280;22335;49.800;8.596;2023-03-03T17:33:57;101075.47;;;21.01;36.36
36304;BME280;22335;49.800;8.596;2023-03-03T17:40:56;101096.19;;;20.91;36.90
36304;BME280;22335;49.800;8.596;2023-03-03T17:47:52;101103.94;;;20.77;37.62
36304;BME280;22335;49.800;8.596;2023-03-03T17:55:11;101106.06;;;20.80;37.71
36304;BME280;22335;49.800;8.596;2023-03-03T18:09:51;101122.38;;;20.90;38.00
36304;BME280;22335;49.800;8.596;2023-03-03T18:17:04;101129.31;;;20.96;37.90
36304;BME280;22335;49.800;8.596;2023-03-03T18:24:23;101135.19;;;21.04;37.96
36304;BME280;22335;49.800;8.596;2023-03-03T18:31:22;101132.72;;;21.02;38.11
36304;BME280;22335;49.800;8.596;2023-03-03T18:38:24;101141.41;;;21.01;38.39
36304;BME280;22335;49.800;8.596;2023-03-03T18:45:48;101151.31;;;21.10;38.46
36304;BME280;22335;49.800;8.596;2023-03-03T18:53:11;101156.81;;;20.98;38.78
36304;BME280;22335;49.800;8.596;2023-03-03T19:00:14;101158.72;;;21.06;38.92
36304;BME280;22335;49.800;8.596;2023-03-03T19:07:19;101162.00;;;21.00;38.69
36304;BME280;22335;49.800;8.596;2023-03-03T19:14:17;101165.97;;;20.99;38.76
36304;BME280;22335;49.800;8.596;2023-03-03T19:21:19;101174.03;;;20.91;38.98
36304;BME280;22335;49.800;8.596;2023-03-03T19:28:20;101184.84;;;21.14;38.67
36304;BME280;22335;49.800;8.596;2023-03-03T19:35:24;101191.88;;;20.90;39.04
36304;BME280;22335;49.800;8.596;2023-03-03T19:42:19;101180.94;;;20.85;39.25
36304;BME280;22335;49.800;8.596;2023-03-03T19:49:20;101182.50;;;20.95;39.00
36304;BME280;22335;49.800;8.596;2023-03-03T19:56:17;101190.84;;;20.95;39.02
36304;BME280;22335;49.800;8.596;2023-03-03T20:03:27;101190.78;;;20.83;39.26
36304;BME280;22335;49.800;8.596;2023-03-03T20:10:46;101194.97;;;20.89;38.86
36304;BME280;22335;49.800;8.596;2023-03-03T20:17:43;101209.91;;;20.84;39.47
36304;BME280;22335;49.800;8.596;2023-03-03T20:24:42;101204.81;;;20.86;39.38
36304;BME280;22335;49.800;8.596;2023-03-03T20:31:42;101215.16;;;20.77;39.62
36304;BME280;22335;49.800;8.596;2023-03-03T20:38:39;101214.63;;;20.84;39.42
36304;BME280;22335;49.800;8.596;2023-03-03T20:45:40;101220.63;;;20.94;39.44
36304;BME280;22335;49.800;8.596;2023-03-03T20:52:37;101219.38;;;20.83;39.42
36304;BME280;22335;49.800;8.596;2023-03-03T20:59:32;101225.34;;;20.73;39.68
36304;BME280;22335;49.800;8.596;2023-03-03T21:06:19;100995.97;;;19.40;39.42
36304;BME280;22335;49.800;8.596;2023-03-03T21:13:26;101225.63;;;20.80;39.43
36304;BME280;22335;49.800;8.596;2023-03-03T21:20:22;101223.84;;;20.76;39.50
36304;BME280;22335;49.800;8.596;2023-03-03T21:27:24;101223.38;;;20.73;39.65
36304;BME280;22335;49.800;8.596;2023-03-03T21:34:27;101022.56;;;19.41;39.54
36304;BME280;22335;49.800;8.596;2023-03-03T21:41:13;101241.66;;;20.75;39.60
36304;BME280;22335;49.800;8.596;2023-03-03T21:47:57;101235.78;;;20.76;39.66
36304;BME280;22335;49.800;8.596;2023-03-03T21:54:46;101238.13;;;20.95;39.28
36304;BME280;22335;49.800;8.596;2023-03-03T22:01:31;101241.72;;;20.66;39.75
36304;BME280;22335;49.800;8.596;2023-03-03T22:08:17;101258.88;;;20.68;39.97
36304;BME280;22335;49.800;8.596;2023-03-03T22:15:05;101256.22;;;20.71;39.68
36304;BME280;22335;49.800;8.596;2023-03-03T22:21:50;101261.34;;;20.61;39.90
36304;BME280;22335;49.800;8.596;2023-03-03T22:28:33;101263.47;;;20.64;39.66
36304;BME280;22335;49.800;8.596;2023-03-03T22:35:18;101273.44;;;20.65;39.70
36304;BME280;22335;49.800;8.596;2023-03-03T22:42:02;101269.00;;;20.72;39.61
36304;BME280;22335;49.800;8.596;2023-03-03T22:48:45;101266.41;;;20.67;39.67
36304;BME280;22335;49.800;8.596;2023-03-03T22:55:30;101255.16;;;20.55;39.54
36304;BME280;22335;49.800;8.596;2023-03-03T23:02:17;101274.09;;;20.62;39.65
36304;BME280;22335;49.800;8.596;2023-03-03T23:09:00;101273.47;;;20.56;39.83
36304;BME280;22335;49.800;8.596;2023-03-03T23:15:45;101273.16;;;20.58;39.63
36304;BME280;22335;49.800;8.596;2023-03-03T23:22:29;101276.09;;;20.53;39.70
36304;BME280;22335;49.800;8.596;2023-03-03T23:29:13;101276.91;;;20.53;39.70
36304;BME280;22335;49.800;8.596;2023-03-03T23:35:57;101276.72;;;20.49;39.83
36304;BME280;22335;49.800;8.596;2023-03-03T23:42:41;101112.00;;;19.29;39.46
36304;BME280;22335;49.800;8.596;2023-03-03T23:49:25;101285.59;;;20.52;39.58
36304;BME280;22335;49.800;8.596;2023-03-03T23:56:10;101282.94;;;20.46;39.57
